sensor_id;sensor_type;location;lat;lon;timestamp;P1;durP1;ratioP1;P2;durP2;ratioP2
54831;SDS011;40730;53.068;6.572;2023-04-29T00:00:03;96.50;;;43.47;;
54831;SDS011;40730;53.068;6.572;2023-04-29T00:02:30;87.22;;;41.70;;
54831;SDS011;40730;53.068;6.572;2023-04-29T00:04:56;88.00;;;42.28;;
54831;SDS011;40730;53.068;6.572;2023-04-29T00:07:22;87.00;;;43.70;;
54831;SDS011;40730;53.068;6.572;2023-04-29T00:09:48;80.72;;;40.40;;
54831;SDS011;40730;53.068;6.572;2023-04-29T00:12:13;82.55;;;40.85;;
54831;SDS011;40730;53.068;6.572;2023-04-29T00:14:39;83.25;;;41.25;;
54831;SDS011;40730;53.068;6.572;2023-04-29T00:17:07;81.95;;;40.22;;
54831;SDS011;40730;53.068;6.572;2023-04-29T00:19:33;83.85;;;42.55;;
54831;SDS011;40730;53.068;6.572;2023-04-29T00:21:58;84.57;;;40.65;;
54831;SDS011;40730;53.068;6.572;2023-04-29T00:24:24;92.30;;;42.15;;
54831;SDS011;40730;53.068;6.572;2023-04-29T00:26:50;85.40;;;40.47;;
54831;SDS011;40730;53.068;6.572;2023-04-29T00:29:16;90.45;;;42.50;;
54831;SDS011;40730;53.068;6.572;2023-04-29T00:31:42;76.32;;;38.75;;
54831;SDS011;40730;53.068;6.572;2023-04-29T00:34:08;78.40;;;39.20;;
54831;SDS011;40730;53.068;6.572;2023-04-29T00:36:34;81.47;;;37.75;;
54831;SDS011;40730;53.068;6.572;2023-04-29T00:39:00;83.13;;;40.00;;
54831;SDS011;40730;53.068;6.572;2023-04-29T00:41:26;78.20;;;39.47;;
54831;SDS011;40730;53.068;6.572;2023-04-29T00:43:51;79.40;;;39.22;;
54831;SDS011;40730;53.068;6.572;2023-04-29T00:46:17;79.45;;;38.20;;
54831;SDS011;40730;53.068;6.572;2023-04-29T00:48:42;82.15;;;38.80;;
54831;SDS011;40730;53.068;6.572;2023-04-29T00:51:08;82.53;;;38.97;;
54831;SDS011;40730;53.068;6.572;2023-04-29T00:53:35;87.43;;;40.60;;
54831;SDS011;40730;53.068;6.572;2023-04-29T00:56:01;78.68;;;38.65;;
54831;SDS011;40730;53.068;6.572;2023-04-29T00:58:28;89.05;;;39.40;;
54831;SDS011;40730;53.068;6.572;2023-04-29T01:00:58;84.07;;;37.28;;
54831;SDS011;40730;53.068;6.572;2023-04-29T01:03:24;72.57;;;35.08;;
54831;SDS011;40730;53.068;6.572;2023-04-29T01:06:00;79.97;;;35.85;;
54831;SDS011;40730;53.068;6.572;2023-04-29T01:08:43;66.05;;;33.17;;
54831;SDS011;40730;53.068;6.572;2023-04-29T01:11:27;68.43;;;31.52;;
54831;SDS011;40730;53.068;6.572;2023-04-29T01:13:59;80.18;;;34.65;;
54831;SDS011;40730;53.068;6.572;2023-04-29T01:19:05;59.45;;;31.58;;
54831;SDS011;40730;53.068;6.572;2023-04-29T01:21:47;67.35;;;31.52;;
54831;SDS011;40730;53.068;6.572;2023-04-29T01:24:14;67.75;;;31.05;;
54831;SDS011;40730;53.068;6.572;2023-04-29T01:26:41;58.70;;;29.00;;
54831;SDS011;40730;53.068;6.572;2023-04-29T01:32:02;54.90;;;27.40;;
54831;SDS011;40730;53.068;6.572;2023-04-29T01:40:09;48.55;;;25.85;;
54831;SDS011;40730;53.068;6.572;2023-04-29T01:42:44;53.80;;;26.02;;
54831;SDS011;40730;53.068;6.572;2023-04-29T01:45:16;52.47;;;24.95;;
54831;SDS011;40730;53.068;6.572;2023-04-29T01:47:43;44.25;;;23.30;;
54831;SDS011;40730;53.068;6.572;2023-04-29T01:50:11;50.10;;;24.80;;
54831;SDS011;40730;53.068;6.572;2023-04-29T01:52:36;46.60;;;23.48;;
54831;SDS011;40730;53.068;6.572;2023-04-29T01:55:02;43.08;;;22.70;;
54831;SDS011;40730;53.068;6.572;2023-04-29T01:57:29;47.05;;;22.40;;
54831;SDS011;40730;53.068;6.572;2023-04-29T01:59:55;48.55;;;25.45;;
54831;SDS011;40730;53.068;6.572;2023-04-29T02:02:21;42.85;;;23.80;;
54831;SDS011;40730;53.068;6.572;2023-04-29T02:04:47;49.58;;;24.13;;
54831;SDS011;40730;53.068;6.572;2023-04-29T02:07:14;48.97;;;24.83;;
54831;SDS011;40730;53.068;6.572;2023-04-29T02:09:40;47.78;;;24.55;;
54831;SDS011;40730;53.068;6.572;2023-04-29T02:12:06;42.53;;;23.80;;
54831;SDS011;40730;53.068;6.572;2023-04-29T02:14:31;47.92;;;24.83;;
54831;SDS011;40730;53.068;6.572;2023-04-29T02:16:58;51.47;;;25.38;;
54831;SDS011;40730;53.068;6.572;2023-04-29T02:19:24;44.30;;;24.40;;
54831;SDS011;40730;53.068;6.572;2023-04-29T02:21:49;45.15;;;23.35;;
54831;SDS011;40730;53.068;6.572;2023-04-29T02:24:15;47.28;;;25.15;;
54831;SDS011;40730;53.068;6.572;2023-04-29T02:26:41;45.97;;;23.50;;
54831;SDS011;40730;53.068;6.572;2023-04-29T02:29:06;47.15;;;24.20;;
54831;SDS011;40730;53.068;6.572;2023-04-29T02:31:32;41.78;;;23.85;;
54831;SDS011;40730;53.068;6.572;2023-04-29T02:33:57;39.72;;;23.70;;
54831;SDS011;40730;53.068;6.572;2023-04-29T02:36:24;43.33;;;23.48;;
54831;SDS011;40730;53.068;6.572;2023-04-29T02:38:50;48.70;;;25.08;;
54831;SDS011;40730;53.068;6.572;2023-04-29T02:41:19;48.08;;;24.02;;
54831;SDS011;40730;53.068;6.572;2023-04-29T02:43:45;51.97;;;24.55;;
54831;SDS011;40730;53.068;6.572;2023-04-29T02:46:11;50.47;;;26.42;;
54831;SDS011;40730;53.068;6.572;2023-04-29T02:48:36;43.65;;;26.10;;
54831;SDS011;40730;53.068;6.572;2023-04-29T02:51:02;50.15;;;25.55;;
54831;SDS011;40730;53.068;6.572;2023-04-29T02:53:28;52.75;;;27.30;;
54831;SDS011;40730;53.068;6.572;2023-04-29T02:55:53;57.65;;;26.95;;
54831;SDS011;40730;53.068;6.572;2023-04-29T02:58:19;51.35;;;26.50;;
54831;SDS011;40730;53.068;6.572;2023-04-29T03:00:45;49.97;;;25.33;;
54831;SDS011;40730;53.068;6.572;2023-04-29T03:03:11;51.53;;;27.05;;
54831;SDS011;40730;53.068;6.572;2023-04-29T03:05:37;53.13;;;26.13;;
54831;SDS011;40730;53.068;6.572;2023-04-29T03:08:02;53.83;;;27.00;;
54831;SDS011;40730;53.068;6.572;2023-04-29T03:10:28;51.08;;;26.30;;
54831;SDS011;40730;53.068;6.572;2023-04-29T03:12:54;52.03;;;26.08;;
54831;SDS011;40730;53.068;6.572;2023-04-29T03:15:20;54.50;;;27.42;;
54831;SDS011;40730;53.068;6.572;2023-04-29T03:17:46;62.88;;;28.40;;
54831;SDS011;40730;53.068;6.572;2023-04-29T03:20:12;57.13;;;30.25;;
54831;SDS011;40730;53.068;6.572;2023-04-29T03:22:38;59.75;;;28.20;;
54831;SDS011;40730;53.068;6.572;2023-04-29T03:25:03;57.80;;;28.77;;
54831;SDS011;40730;53.068;6.572;2023-04-29T03:27:30;57.13;;;29.00;;
54831;SDS011;40730;53.068;6.572;2023-04-29T03:29:55;60.05;;;28.63;;
54831;SDS011;40730;53.068;6.572;2023-04-29T03:32:21;60.83;;;29.67;;
54831;SDS011;40730;53.068;6.572;2023-04-29T03:34:47;62.55;;;29.67;;
54831;SDS011;40730;53.068;6.572;2023-04-29T03:37:13;57.58;;;29.92;;
54831;SDS011;40730;53.068;6.572;2023-04-29T03:39:40;60.63;;;30.58;;
54831;SDS011;40730;53.068;6.572;2023-04-29T03:42:06;65.82;;;30.65;;
54831;SDS011;40730;53.068;6.572;2023-04-29T03:44:32;60.95;;;29.45;;
54831;SDS011;40730;53.068;6.572;2023-04-29T03:46:57;58.83;;;29.63;;
54831;SDS011;40730;53.068;6.572;2023-04-29T03:49:23;63.35;;;31.20;;
54831;SDS011;40730;53.068;6.572;2023-04-29T03:51:49;61.00;;;30.70;;
54831;SDS011;40730;53.068;6.572;2023-04-29T03:54:15;65.00;;;31.05;;
54831;SDS011;40730;53.068;6.572;2023-04-29T03:56:41;66.38;;;30.52;;
54831;SDS011;40730;53.068;6.572;2023-04-29T03:59:07;61.30;;;30.42;;
54831;SDS011;40730;53.068;6.572;2023-04-29T04:01:33;62.42;;;31.13;;
54831;SDS011;40730;53.068;6.572;2023-04-29T04:03:58;63.15;;;31.13;;
54831;SDS011;40730;53.068;6.572;2023-04-29T04:06:24;62.72;;;30.70;;
54831;SDS011;40730;53.068;6.572;2023-04-29T04:08:50;63.03;;;30.25;;
54831;SDS011;40730;53.068;6.572;2023-04-29T04:11:16;62.53;;;29.58;;
54831;SDS011;40730;53.068;6.572;2023-04-29T04:13:41;67.10;;;29.42;;
54831;SDS011;40730;53.068;6.572;2023-04-29T04:16:07;58.85;;;29.02;;
54831;SDS011;40730;53.068;6.572;2023-04-29T04:18:34;65.43;;;28.25;;
54831;SDS011;40730;53.068;6.572;2023-04-29T04:21:07;55.30;;;26.00;;
54831;SDS011;40730;53.068;6.572;2023-04-29T04:23:34;59.38;;;26.38;;
54831;SDS011;40730;53.068;6.572;2023-04-29T04:26:02;55.08;;;24.77;;
54831;SDS011;40730;53.068;6.572;2023-04-29T04:28:27;50.92;;;25.00;;
54831;SDS011;40730;53.068;6.572;2023-04-29T04:30:53;55.80;;;24.25;;
54831;SDS011;40730;53.068;6.572;2023-04-29T04:33:18;47.85;;;22.35;;
54831;SDS011;40730;53.068;6.572;2023-04-29T04:35:44;44.03;;;22.00;;
54831;SDS011;40730;53.068;6.572;2023-04-29T04:38:10;45.78;;;20.55;;
54831;SDS011;40730;53.068;6.572;2023-04-29T04:40:39;43.50;;;19.42;;
54831;SDS011;40730;53.068;6.572;2023-04-29T04:43:05;43.55;;;20.27;;
54831;SDS011;40730;53.068;6.572;2023-04-29T04:45:31;46.38;;;19.70;;
54831;SDS011;40730;53.068;6.572;2023-04-29T04:47:57;41.40;;;18.80;;
54831;SDS011;40730;53.068;6.572;2023-04-29T04:50:22;43.78;;;18.90;;
54831;SDS011;40730;53.068;6.572;2023-04-29T04:52:48;43.63;;;20.98;;
54831;SDS011;40730;53.068;6.572;2023-04-29T04:55:13;43.38;;;19.73;;
54831;SDS011;40730;53.068;6.572;2023-04-29T04:57:39;40.50;;;18.40;;
54831;SDS011;40730;53.068;6.572;2023-04-29T05:00:05;45.75;;;18.80;;
54831;SDS011;40730;53.068;6.572;2023-04-29T05:02:32;34.78;;;19.02;;
54831;SDS011;40730;53.068;6.572;2023-04-29T05:04:58;38.38;;;19.90;;
54831;SDS011;40730;53.068;6.572;2023-04-29T05:07:23;36.55;;;19.70;;
54831;SDS011;40730;53.068;6.572;2023-04-29T05:09:49;41.95;;;18.73;;
54831;SDS011;40730;53.068;6.572;2023-04-29T05:12:14;35.50;;;18.45;;
54831;SDS011;40730;53.068;6.572;2023-04-29T05:14:40;38.67;;;17.70;;
54831;SDS011;40730;53.068;6.572;2023-04-29T05:17:05;42.95;;;17.90;;
54831;SDS011;40730;53.068;6.572;2023-04-29T05:19:33;28.92;;;16.85;;
54831;SDS011;40730;53.068;6.572;2023-04-29T05:21:59;38.50;;;16.85;;
54831;SDS011;40730;53.068;6.572;2023-04-29T05:24:24;30.60;;;15.23;;
54831;SDS011;40730;53.068;6.572;2023-04-29T05:26:50;30.70;;;15.77;;
54831;SDS011;40730;53.068;6.572;2023-04-29T05:29:16;31.85;;;15.88;;
54831;SDS011;40730;53.068;6.572;2023-04-29T05:31:41;32.05;;;16.45;;
54831;SDS011;40730;53.068;6.572;2023-04-29T05:34:07;34.53;;;15.73;;
54831;SDS011;40730;53.068;6.572;2023-04-29T05:36:32;30.10;;;14.88;;
54831;SDS011;40730;53.068;6.572;2023-04-29T05:38:58;31.48;;;15.27;;
54831;SDS011;40730;53.068;6.572;2023-04-29T05:41:24;31.90;;;15.25;;
54831;SDS011;40730;53.068;6.572;2023-04-29T05:43:50;28.73;;;13.73;;
54831;SDS011;40730;53.068;6.572;2023-04-29T05:46:15;27.13;;;13.57;;
54831;SDS011;40730;53.068;6.572;2023-04-29T05:48:41;26.85;;;13.25;;
54831;SDS011;40730;53.068;6.572;2023-04-29T05:51:07;23.75;;;13.00;;
54831;SDS011;40730;53.068;6.572;2023-04-29T05:53:32;26.38;;;14.25;;
54831;SDS011;40730;53.068;6.572;2023-04-29T05:55:59;25.95;;;12.77;;
54831;SDS011;40730;53.068;6.572;2023-04-29T05:58:28;22.45;;;12.48;;
54831;SDS011;40730;53.068;6.572;2023-04-29T06:00:54;24.30;;;11.65;;
54831;SDS011;40730;53.068;6.572;2023-04-29T06:03:20;20.65;;;11.38;;
54831;SDS011;40730;53.068;6.572;2023-04-29T06:05:46;20.67;;;11.43;;
54831;SDS011;40730;53.068;6.572;2023-04-29T06:08:12;21.95;;;10.70;;
54831;SDS011;40730;53.068;6.572;2023-04-29T06:10:37;21.15;;;11.43;;
54831;SDS011;40730;53.068;6.572;2023-04-29T06:13:03;22.90;;;11.50;;
54831;SDS011;40730;53.068;6.572;2023-04-29T06:15:29;24.23;;;11.80;;
54831;SDS011;40730;53.068;6.572;2023-04-29T06:17:54;23.08;;;10.75;;
54831;SDS011;40730;53.068;6.572;2023-04-29T06:20:20;17.90;;;10.23;;
54831;SDS011;40730;53.068;6.572;2023-04-29T06:22:46;21.88;;;10.95;;
54831;SDS011;40730;53.068;6.572;2023-04-29T06:25:11;15.68;;;9.30;;
54831;SDS011;40730;53.068;6.572;2023-04-29T06:27:38;15.93;;;10.20;;
54831;SDS011;40730;53.068;6.572;2023-04-29T06:30:03;18.38;;;9.45;;
54831;SDS011;40730;53.068;6.572;2023-04-29T06:32:29;20.02;;;10.20;;
54831;SDS011;40730;53.068;6.572;2023-04-29T06:34:55;20.08;;;9.27;;
54831;SDS011;40730;53.068;6.572;2023-04-29T06:37:24;18.02;;;9.88;;
54831;SDS011;40730;53.068;6.572;2023-04-29T06:39:49;17.77;;;8.93;;
54831;SDS011;40730;53.068;6.572;2023-04-29T06:42:17;19.75;;;10.80;;
54831;SDS011;40730;53.068;6.572;2023-04-29T06:44:43;14.52;;;9.20;;
54831;SDS011;40730;53.068;6.572;2023-04-29T06:47:09;16.30;;;8.63;;
54831;SDS011;40730;53.068;6.572;2023-04-29T06:49:34;17.13;;;8.80;;
54831;SDS011;40730;53.068;6.572;2023-04-29T06:52:00;18.17;;;8.38;;
54831;SDS011;40730;53.068;6.572;2023-04-29T06:54:31;16.52;;;8.82;;
54831;SDS011;40730;53.068;6.572;2023-04-29T06:56:59;14.32;;;8.45;;
54831;SDS011;40730;53.068;6.572;2023-04-29T06:59:30;12.43;;;7.13;;
54831;SDS011;40730;53.068;6.572;2023-04-29T07:02:02;14.18;;;7.78;;
54831;SDS011;40730;53.068;6.572;2023-04-29T07:04:28;13.10;;;7.85;;
54831;SDS011;40730;53.068;6.572;2023-04-29T07:06:54;17.20;;;7.78;;
54831;SDS011;40730;53.068;6.572;2023-04-29T07:09:25;12.75;;;7.40;;
54831;SDS011;40730;53.068;6.572;2023-04-29T07:11:52;10.15;;;5.97;;
54831;SDS011;40730;53.068;6.572;2023-04-29T07:14:18;14.02;;;7.28;;
54831;SDS011;40730;53.068;6.572;2023-04-29T07:16:43;10.85;;;7.32;;
54831;SDS011;40730;53.068;6.572;2023-04-29T07:19:09;10.32;;;5.93;;
54831;SDS011;40730;53.068;6.572;2023-04-29T07:21:35;11.63;;;7.25;;
54831;SDS011;40730;53.068;6.572;2023-04-29T07:24:00;14.02;;;7.30;;
54831;SDS011;40730;53.068;6.572;2023-04-29T07:26:29;16.20;;;7.07;;
54831;SDS011;40730;53.068;6.572;2023-04-29T07:28:54;12.20;;;7.55;;
54831;SDS011;40730;53.068;6.572;2023-04-29T07:31:20;12.73;;;7.15;;
54831;SDS011;40730;53.068;6.572;2023-04-29T07:33:46;10.85;;;7.13;;
54831;SDS011;40730;53.068;6.572;2023-04-29T07:36:12;11.07;;;7.45;;
54831;SDS011;40730;53.068;6.572;2023-04-29T07:38:38;9.30;;;7.00;;
54831;SDS011;40730;53.068;6.572;2023-04-29T07:41:04;14.50;;;7.00;;
54831;SDS011;40730;53.068;6.572;2023-04-29T07:43:30;12.82;;;7.47;;
54831;SDS011;40730;53.068;6.572;2023-04-29T07:45:55;11.15;;;6.72;;
54831;SDS011;40730;53.068;6.572;2023-04-29T07:48:21;14.32;;;7.53;;
54831;SDS011;40730;53.068;6.572;2023-04-29T07:50:47;16.38;;;8.38;;
54831;SDS011;40730;53.068;6.572;2023-04-29T07:53:12;11.80;;;6.97;;
54831;SDS011;40730;53.068;6.572;2023-04-29T07:55:40;11.82;;;6.53;;
54831;SDS011;40730;53.068;6.572;2023-04-29T07:58:05;12.05;;;6.53;;
54831;SDS011;40730;53.068;6.572;2023-04-29T08:00:31;10.23;;;6.47;;
54831;SDS011;40730;53.068;6.572;2023-04-29T08:02:57;10.00;;;5.75;;
54831;SDS011;40730;53.068;6.572;2023-04-29T08:05:25;15.25;;;5.93;;
54831;SDS011;40730;53.068;6.572;2023-04-29T08:07:51;11.60;;;5.15;;
54831;SDS011;40730;53.068;6.572;2023-04-29T08:10:17;11.43;;;5.47;;
54831;SDS011;40730;53.068;6.572;2023-04-29T08:12:52;11.82;;;5.55;;
54831;SDS011;40730;53.068;6.572;2023-04-29T08:15:18;7.45;;;4.72;;
54831;SDS011;40730;53.068;6.572;2023-04-29T08:17:44;11.55;;;5.47;;
54831;SDS011;40730;53.068;6.572;2023-04-29T08:20:10;8.10;;;5.40;;
54831;SDS011;40730;53.068;6.572;2023-04-29T08:22:40;6.90;;;4.45;;
54831;SDS011;40730;53.068;6.572;2023-04-29T08:25:08;11.85;;;4.78;;
54831;SDS011;40730;53.068;6.572;2023-04-29T08:27:34;10.25;;;4.60;;
54831;SDS011;40730;53.068;6.572;2023-04-29T08:30:00;9.88;;;5.18;;
54831;SDS011;40730;53.068;6.572;2023-04-29T08:32:25;7.80;;;4.68;;
54831;SDS011;40730;53.068;6.572;2023-04-29T08:34:54;8.35;;;4.57;;
54831;SDS011;40730;53.068;6.572;2023-04-29T08:37:20;8.65;;;4.70;;
54831;SDS011;40730;53.068;6.572;2023-04-29T08:39:46;5.55;;;4.05;;
54831;SDS011;40730;53.068;6.572;2023-04-29T08:42:12;8.13;;;4.43;;
54831;SDS011;40730;53.068;6.572;2023-04-29T08:44:38;10.10;;;4.15;;
54831;SDS011;40730;53.068;6.572;2023-04-29T08:47:05;8.25;;;4.72;;
54831;SDS011;40730;53.068;6.572;2023-04-29T08:49:31;9.77;;;4.60;;
54831;SDS011;40730;53.068;6.572;2023-04-29T08:51:58;8.18;;;4.88;;
54831;SDS011;40730;53.068;6.572;2023-04-29T08:54:23;11.32;;;5.03;;
54831;SDS011;40730;53.068;6.572;2023-04-29T08:56:49;8.75;;;4.57;;
54831;SDS011;40730;53.068;6.572;2023-04-29T08:59:16;8.93;;;5.00;;
54831;SDS011;40730;53.068;6.572;2023-04-29T09:01:42;10.93;;;5.00;;
54831;SDS011;40730;53.068;6.572;2023-04-29T09:06:46;8.98;;;5.38;;
54831;SDS011;40730;53.068;6.572;2023-04-29T09:09:12;10.05;;;5.03;;
54831;SDS011;40730;53.068;6.572;2023-04-29T09:11:39;7.78;;;5.03;;
54831;SDS011;40730;53.068;6.572;2023-04-29T09:14:05;9.02;;;4.95;;
54831;SDS011;40730;53.068;6.572;2023-04-29T09:16:32;7.78;;;4.88;;
54831;SDS011;40730;53.068;6.572;2023-04-29T09:18:59;9.55;;;4.95;;
54831;SDS011;40730;53.068;6.572;2023-04-29T09:21:25;8.70;;;4.85;;
54831;SDS011;40730;53.068;6.572;2023-04-29T09:23:56;10.52;;;6.03;;
54831;SDS011;40730;53.068;6.572;2023-04-29T09:26:23;7.05;;;5.18;;
54831;SDS011;40730;53.068;6.572;2023-04-29T09:31:38;9.65;;;4.95;;
54831;SDS011;40730;53.068;6.572;2023-04-29T09:34:05;10.85;;;5.30;;
54831;SDS011;40730;53.068;6.572;2023-04-29T09:39:22;10.05;;;4.68;;
54831;SDS011;40730;53.068;6.572;2023-04-29T09:44:16;7.47;;;4.22;;
54831;SDS011;40730;53.068;6.572;2023-04-29T09:46:42;7.57;;;4.38;;
54831;SDS011;40730;53.068;6.572;2023-04-29T09:51:52;6.18;;;3.35;;
54831;SDS011;40730;53.068;6.572;2023-04-29T09:54:22;8.65;;;3.78;;
54831;SDS011;40730;53.068;6.572;2023-04-29T09:56:49;5.47;;;3.15;;
54831;SDS011;40730;53.068;6.572;2023-04-29T09:59:16;5.43;;;3.28;;
54831;SDS011;40730;53.068;6.572;2023-04-29T10:01:49;8.60;;;4.40;;
54831;SDS011;40730;53.068;6.572;2023-04-29T10:04:17;9.43;;;4.15;;
54831;SDS011;40730;53.068;6.572;2023-04-29T10:06:44;8.30;;;3.67;;
54831;SDS011;40730;53.068;6.572;2023-04-29T10:09:12;6.10;;;4.13;;
54831;SDS011;40730;53.068;6.572;2023-04-29T10:11:49;6.05;;;3.53;;
54831;SDS011;40730;53.068;6.572;2023-04-29T10:14:18;5.55;;;4.07;;
54831;SDS011;40730;53.068;6.572;2023-04-29T10:19:33;6.50;;;4.43;;
54831;SDS011;40730;53.068;6.572;2023-04-29T10:22:07;5.53;;;4.22;;
54831;SDS011;40730;53.068;6.572;2023-04-29T10:24:36;9.13;;;4.10;;
54831;SDS011;40730;53.068;6.572;2023-04-29T10:27:05;8.63;;;4.40;;
54831;SDS011;40730;53.068;6.572;2023-04-29T10:29:38;9.98;;;4.00;;
54831;SDS011;40730;53.068;6.572;2023-04-29T10:32:09;7.80;;;4.10;;
54831;SDS011;40730;53.068;6.572;2023-04-29T10:34:37;14.73;;;4.45;;
54831;SDS011;40730;53.068;6.572;2023-04-29T10:37:08;11.07;;;4.47;;
54831;SDS011;40730;53.068;6.572;2023-04-29T10:39:38;6.85;;;3.80;;
54831;SDS011;40730;53.068;6.572;2023-04-29T10:42:44;4.63;;;3.90;;
54831;SDS011;40730;53.068;6.572;2023-04-29T10:50:29;5.95;;;2.72;;
54831;SDS011;40730;53.068;6.572;2023-04-29T10:53:09;5.25;;;2.80;;
54831;SDS011;40730;53.068;6.572;2023-04-29T10:55:35;5.78;;;2.38;;
54831;SDS011;40730;53.068;6.572;2023-04-29T10:58:02;7.32;;;3.70;;
54831;SDS011;40730;53.068;6.572;2023-04-29T11:00:29;6.75;;;3.17;;
54831;SDS011;40730;53.068;6.572;2023-04-29T11:03:00;8.00;;;3.35;;
54831;SDS011;40730;53.068;6.572;2023-04-29T11:05:30;5.45;;;3.38;;
54831;SDS011;40730;53.068;6.572;2023-04-29T11:08:13;9.52;;;3.33;;
54831;SDS011;40730;53.068;6.572;2023-04-29T11:10:47;5.68;;;4.18;;
54831;SDS011;40730;53.068;6.572;2023-04-29T11:13:25;7.93;;;2.92;;
54831;SDS011;40730;53.068;6.572;2023-04-29T11:15:53;6.90;;;3.25;;
54831;SDS011;40730;53.068;6.572;2023-04-29T11:18:32;9.38;;;3.72;;
54831;SDS011;40730;53.068;6.572;2023-04-29T11:23:40;6.35;;;2.60;;
54831;SDS011;40730;53.068;6.572;2023-04-29T11:26:06;5.03;;;1.80;;
54831;SDS011;40730;53.068;6.572;2023-04-29T11:28:32;6.40;;;2.47;;
54831;SDS011;40730;53.068;6.572;2023-04-29T11:30:58;6.35;;;2.42;;
54831;SDS011;40730;53.068;6.572;2023-04-29T11:33:25;3.63;;;1.70;;
54831;SDS011;40730;53.068;6.572;2023-04-29T11:35:52;2.25;;;1.58;;
54831;SDS011;40730;53.068;6.572;2023-04-29T11:38:22;4.57;;;1.23;;
54831;SDS011;40730;53.068;6.572;2023-04-29T11:40:49;4.10;;;1.23;;
54831;SDS011;40730;53.068;6.572;2023-04-29T11:43:19;3.92;;;1.00;;
54831;SDS011;40730;53.068;6.572;2023-04-29T11:45:45;2.88;;;0.80;;
54831;SDS011;40730;53.068;6.572;2023-04-29T11:48:20;2.10;;;0.90;;
54831;SDS011;40730;53.068;6.572;2023-04-29T11:50:49;4.88;;;0.80;;
54831;SDS011;40730;53.068;6.572;2023-04-29T11:53:19;1.77;;;0.80;;
54831;SDS011;40730;53.068;6.572;2023-04-29T11:55:46;3.20;;;1.30;;
54831;SDS011;40730;53.068;6.572;2023-04-29T11:58:13;2.65;;;0.90;;
54831;SDS011;40730;53.068;6.572;2023-04-29T12:00:40;3.85;;;0.93;;
54831;SDS011;40730;53.068;6.572;2023-04-29T12:03:26;2.47;;;0.90;;
54831;SDS011;40730;53.068;6.572;2023-04-29T12:08:24;6.55;;;1.00;;
54831;SDS011;40730;53.068;6.572;2023-04-29T12:10:53;4.40;;;1.63;;
54831;SDS011;40730;53.068;6.572;2023-04-29T12:13:19;3.70;;;1.33;;
54831;SDS011;40730;53.068;6.572;2023-04-29T12:15:48;3.30;;;1.23;;
54831;SDS011;40730;53.068;6.572;2023-04-29T12:18:16;3.42;;;1.20;;
54831;SDS011;40730;53.068;6.572;2023-04-29T12:20:45;2.80;;;0.95;;
54831;SDS011;40730;53.068;6.572;2023-04-29T12:23:16;2.63;;;1.15;;
54831;SDS011;40730;53.068;6.572;2023-04-29T12:25:52;6.18;;;1.73;;
54831;SDS011;40730;53.068;6.572;2023-04-29T12:28:20;3.22;;;1.38;;
54831;SDS011;40730;53.068;6.572;2023-04-29T12:30:47;3.13;;;1.10;;
54831;SDS011;40730;53.068;6.572;2023-04-29T12:33:27;3.60;;;0.82;;
54831;SDS011;40730;53.068;6.572;2023-04-29T12:35:55;2.88;;;1.05;;
54831;SDS011;40730;53.068;6.572;2023-04-29T12:40:52;4.93;;;0.57;;
54831;SDS011;40730;53.068;6.572;2023-04-29T12:43:18;1.65;;;0.57;;
54831;SDS011;40730;53.068;6.572;2023-04-29T12:45:44;2.90;;;0.95;;
54831;SDS011;40730;53.068;6.572;2023-04-29T12:48:10;8.10;;;1.20;;
54831;SDS011;40730;53.068;6.572;2023-04-29T12:50:37;5.38;;;0.80;;
54831;SDS011;40730;53.068;6.572;2023-04-29T12:53:04;2.47;;;0.60;;
54831;SDS011;40730;53.068;6.572;2023-04-29T12:55:34;2.25;;;0.63;;
54831;SDS011;40730;53.068;6.572;2023-04-29T12:58:01;2.83;;;0.50;;
54831;SDS011;40730;53.068;6.572;2023-04-29T13:00:28;1.88;;;0.60;;
54831;SDS011;40730;53.068;6.572;2023-04-29T13:02:53;1.70;;;0.45;;
54831;SDS011;40730;53.068;6.572;2023-04-29T13:05:20;1.95;;;0.43;;
54831;SDS011;40730;53.068;6.572;2023-04-29T13:07:46;3.95;;;0.52;;
54831;SDS011;40730;53.068;6.572;2023-04-29T13:10:12;2.13;;;0.40;;
54831;SDS011;40730;53.068;6.572;2023-04-29T13:12:38;1.35;;;0.32;;
54831;SDS011;40730;53.068;6.572;2023-04-29T13:15:05;1.45;;;0.30;;
54831;SDS011;40730;53.068;6.572;2023-04-29T13:17:33;2.85;;;0.40;;
54831;SDS011;40730;53.068;6.572;2023-04-29T13:20:00;1.10;;;0.30;;
54831;SDS011;40730;53.068;6.572;2023-04-29T13:22:27;1.10;;;0.35;;
54831;SDS011;40730;53.068;6.572;2023-04-29T13:24:53;1.50;;;0.43;;
54831;SDS011;40730;53.068;6.572;2023-04-29T13:27:18;1.60;;;0.30;;
54831;SDS011;40730;53.068;6.572;2023-04-29T13:29:44;1.00;;;0.30;;
54831;SDS011;40730;53.068;6.572;2023-04-29T13:32:10;1.58;;;0.30;;
54831;SDS011;40730;53.068;6.572;2023-04-29T13:34:35;1.95;;;0.30;;
54831;SDS011;40730;53.068;6.572;2023-04-29T13:37:01;3.33;;;0.45;;
54831;SDS011;40730;53.068;6.572;2023-04-29T13:39:27;2.58;;;0.43;;
54831;SDS011;40730;53.068;6.572;2023-04-29T13:41:52;3.10;;;0.40;;
54831;SDS011;40730;53.068;6.572;2023-04-29T13:44:18;1.20;;;0.30;;
54831;SDS011;40730;53.068;6.572;2023-04-29T13:46:44;2.05;;;0.40;;
54831;SDS011;40730;53.068;6.572;2023-04-29T13:49:10;1.60;;;0.50;;
54831;SDS011;40730;53.068;6.572;2023-04-29T13:51:36;2.78;;;0.43;;
54831;SDS011;40730;53.068;6.572;2023-04-29T13:54:01;2.47;;;0.65;;
54831;SDS011;40730;53.068;6.572;2023-04-29T13:56:27;3.25;;;0.82;;
54831;SDS011;40730;53.068;6.572;2023-04-29T13:58:53;2.47;;;0.77;;
54831;SDS011;40730;53.068;6.572;2023-04-29T14:01:19;2.88;;;0.70;;
54831;SDS011;40730;53.068;6.572;2023-04-29T14:03:46;4.25;;;1.30;;
54831;SDS011;40730;53.068;6.572;2023-04-29T14:06:11;2.58;;;1.02;;
54831;SDS011;40730;53.068;6.572;2023-04-29T14:08:37;3.28;;;1.10;;
54831;SDS011;40730;53.068;6.572;2023-04-29T14:11:03;6.70;;;2.40;;
54831;SDS011;40730;53.068;6.572;2023-04-29T14:13:29;4.28;;;2.35;;
54831;SDS011;40730;53.068;6.572;2023-04-29T14:15:55;4.45;;;2.88;;
54831;SDS011;40730;53.068;6.572;2023-04-29T14:18:20;8.73;;;4.82;;
54831;SDS011;40730;53.068;6.572;2023-04-29T14:20:46;7.50;;;4.47;;
54831;SDS011;40730;53.068;6.572;2023-04-29T14:23:12;9.18;;;4.53;;
54831;SDS011;40730;53.068;6.572;2023-04-29T14:51:31;6.18;;;4.68;;
54831;SDS011;40730;53.068;6.572;2023-04-29T14:53:56;7.13;;;3.60;;
54831;SDS011;40730;53.068;6.572;2023-04-29T14:56:22;6.65;;;3.35;;
54831;SDS011;40730;53.068;6.572;2023-04-29T14:58:48;4.88;;;3.10;;
54831;SDS011;40730;53.068;6.572;2023-04-29T15:01:13;5.88;;;3.28;;
54831;SDS011;40730;53.068;6.572;2023-04-29T15:03:39;7.07;;;3.65;;
54831;SDS011;40730;53.068;6.572;2023-04-29T15:06:05;5.38;;;3.22;;
54831;SDS011;40730;53.068;6.572;2023-04-29T15:08:31;4.30;;;2.80;;
54831;SDS011;40730;53.068;6.572;2023-04-29T15:10:56;4.70;;;2.65;;
54831;SDS011;40730;53.068;6.572;2023-04-29T15:13:22;4.28;;;2.60;;
54831;SDS011;40730;53.068;6.572;2023-04-29T15:15:48;4.70;;;2.03;;
54831;SDS011;40730;53.068;6.572;2023-04-29T15:18:14;3.58;;;2.35;;
54831;SDS011;40730;53.068;6.572;2023-04-29T15:20:39;3.72;;;2.08;;
54831;SDS011;40730;53.068;6.572;2023-04-29T15:23:05;4.65;;;2.47;;
54831;SDS011;40730;53.068;6.572;2023-04-29T15:25:32;5.07;;;2.40;;
54831;SDS011;40730;53.068;6.572;2023-04-29T15:27:59;7.18;;;3.05;;
54831;SDS011;40730;53.068;6.572;2023-04-29T15:30:26;4.72;;;2.10;;
54831;SDS011;40730;53.068;6.572;2023-04-29T15:32:52;6.78;;;2.75;;
54831;SDS011;40730;53.068;6.572;2023-04-29T15:35:21;5.53;;;2.33;;
54831;SDS011;40730;53.068;6.572;2023-04-29T15:37:46;5.22;;;2.33;;